createdAt,value
2017-07-04T00:00:19.702Z,1013.46
2017-07-04T00:00:45.837Z,1013.43
2017-07-04T00:01:11.971Z,1013.47
2017-07-04T00:01:38.117Z,1013.42
2017-07-04T00:02:04.254Z,1013.44
2017-07-04T00:02:30.405Z,1013.42
2017-07-04T00:02:56.550Z,1013.43
2017-07-04T00:03:22.690Z,1013.4
2017-07-04T00:03:48.821Z,1013.42
2017-07-04T00:04:14.965Z,1013.41
2017-07-04T00:04:41.111Z,1013.39
2017-07-04T00:05:07.264Z,1013.42
2017-07-04T00:05:33.404Z,1013.42
2017-07-04T00:05:59.534Z,1013.4
2017-07-04T00:06:25.682Z,1013.36
2017-07-04T00:06:51.822Z,1013.36
2017-07-04T00:07:17.954Z,1013.33
2017-07-04T00:07:44.096Z,1013.31
2017-07-04T00:08:10.245Z,1013.33
2017-07-04T00:08:36.370Z,1013.33
2017-07-04T00:09:02.515Z,1013.33
2017-07-04T00:09:28.663Z,1013.35
2017-07-04T00:09:54.794Z,1013.35
2017-07-04T00:10:20.929Z,1013.31
2017-07-04T00:10:47.103Z,1013.36
2017-07-04T00:11:13.237Z,1013.37
2017-07-04T00:11:39.415Z,1013.38
2017-07-04T00:12:05.536Z,1013.38
2017-07-04T00:12:31.677Z,1013.37
2017-07-04T00:12:57.824Z,1013.4
2017-07-04T00:13:24.182Z,1013.41
2017-07-04T00:13:50.333Z,1013.38
2017-07-04T00:14:16.502Z,1013.38
2017-07-04T00:14:42.637Z,1013.43
2017-07-04T00:15:08.787Z,1013.37
2017-07-04T00:15:34.918Z,1013.42
2017-07-04T00:16:01.062Z,1013.42
2017-07-04T00:16:27.186Z,1013.36
2017-07-04T00:16:53.330Z,1013.4
2017-07-04T00:17:19.468Z,1013.37
2017-07-04T00:17:45.617Z,1013.38
2017-07-04T00:18:11.752Z,1013.39
2017-07-04T00:18:37.935Z,1013.36
2017-07-04T00:19:04.081Z,1013.35
2017-07-04T00:19:30.218Z,1013.36
2017-07-04T00:19:56.347Z,1013.35
2017-07-04T00:20:22.494Z,1013.35
2017-07-04T00:20:48.718Z,1013.33
2017-07-04T00:21:14.821Z,1013.36
2017-07-04T00:21:40.963Z,1013.32
2017-07-04T00:22:07.151Z,1013.33
2017-07-04T00:22:33.243Z,1013.34
2017-07-04T00:22:59.395Z,1013.33
2017-07-04T00:23:25.531Z,1013.35
2017-07-04T00:23:51.673Z,1013.35
2017-07-04T00:24:17.813Z,1013.32
2017-07-04T00:24:43.944Z,1013.31
2017-07-04T00:25:10.088Z,1013.3
2017-07-04T00:25:36.260Z,1013.3
2017-07-04T00:26:02.391Z,1013.31
2017-07-04T00:26:28.535Z,1013.31
2017-07-04T00:26:54.683Z,1013.33
2017-07-04T00:27:20.818Z,1013.27
2017-07-04T00:27:46.950Z,1013.3
2017-07-04T00:28:13.094Z,1013.31
2017-07-04T00:28:39.227Z,1013.32
2017-07-04T00:29:05.360Z,1013.28
2017-07-04T00:29:31.509Z,1013.26
2017-07-04T00:29:57.646Z,1013.25
2017-07-04T00:30:23.779Z,1013.26
2017-07-04T00:30:49.926Z,1013.25
2017-07-04T00:31:16.065Z,1013.27
2017-07-04T00:31:42.203Z,1013.25
2017-07-04T00:32:08.365Z,1013.28
2017-07-04T00:32:34.513Z,1013.24
2017-07-04T00:33:00.643Z,1013.27
2017-07-04T00:33:26.802Z,1013.28
2017-07-04T00:33:52.937Z,1013.25
2017-07-04T00:34:19.138Z,1013.24
2017-07-04T00:34:45.272Z,1013.27
2017-07-04T00:35:11.401Z,1013.21
2017-07-04T00:35:37.546Z,1013.23
2017-07-04T00:36:03.689Z,1013.25
2017-07-04T00:36:29.816Z,1013.25
2017-07-04T00:36:56.300Z,1013.24
2017-07-04T00:37:24.780Z,1013.23
2017-07-04T00:37:50.845Z,1013.26
2017-07-04T00:38:18.509Z,1013.29
2017-07-04T00:38:46.240Z,1013.28
2017-07-04T00:39:13.729Z,1013.29
2017-07-04T00:39:40.088Z,1013.3
2017-07-04T00:40:06.212Z,1013.29
2017-07-04T00:40:32.381Z,1013.33
2017-07-04T00:40:58.528Z,1013.32
2017-07-04T00:41:24.659Z,1013.31
2017-07-04T00:41:50.794Z,1013.32
2017-07-04T00:42:16.942Z,1013.34
2017-07-04T00:42:43.096Z,1013.36
2017-07-04T00:43:09.226Z,1013.37
2017-07-04T00:43:35.375Z,1013.38
2017-07-04T00:44:01.512Z,1013.36
2017-07-04T00:44:27.649Z,1013.33
2017-07-04T00:44:53.819Z,1013.36
2017-07-04T00:45:19.953Z,1013.35
2017-07-04T00:45:46.101Z,1013.35
2017-07-04T00:46:12.235Z,1013.33
2017-07-04T00:46:38.368Z,1013.34
2017-07-04T00:47:04.519Z,1013.35
2017-07-04T00:47:30.654Z,1013.29
2017-07-04T00:47:56.786Z,1013.32
2017-07-04T00:48:22.932Z,1013.31
2017-07-04T00:48:49.073Z,1013.3
2017-07-04T00:49:15.202Z,1013.3
2017-07-04T00:49:41.342Z,1013.28
2017-07-04T00:50:07.485Z,1013.32
2017-07-04T00:50:33.617Z,1013.26
2017-07-04T00:50:59.755Z,1013.29
2017-07-04T00:51:25.886Z,1013.27
2017-07-04T00:51:52.027Z,1013.29
2017-07-04T00:52:18.167Z,1013.28
2017-07-04T00:52:44.320Z,1013.26
2017-07-04T00:53:10.477Z,1013.28
2017-07-04T00:53:36.620Z,1013.31
2017-07-04T00:54:02.748Z,1013.29
2017-07-04T00:54:28.883Z,1013.27
2017-07-04T00:54:55.036Z,1013.28
2017-07-04T00:55:21.164Z,1013.3
2017-07-04T00:55:47.302Z,1013.28
2017-07-04T00:56:13.440Z,1013.28
2017-07-04T00:56:39.585Z,1013.26
2017-07-04T00:57:05.730Z,1013.3
2017-07-04T00:57:31.865Z,1013.28
2017-07-04T00:57:58.002Z,1013.28
2017-07-04T00:58:24.145Z,1013.29
2017-07-04T00:58:50.277Z,1013.3
2017-07-04T00:59:16.417Z,1013.29
2017-07-04T00:59:44.366Z,1013.28
2017-07-04T01:00:11.765Z,1013.29
2017-07-04T01:00:39.449Z,1013.33
2017-07-04T01:01:07.336Z,1013.29
2017-07-04T01:01:34.100Z,1013.32
2017-07-04T01:02:01.628Z,1013.27
2017-07-04T01:02:29.023Z,1013.27
2017-07-04T01:02:55.288Z,1013.31
2017-07-04T01:03:23.064Z,1013.27
2017-07-04T01:03:51.313Z,1013.3
2017-07-04T01:04:18.644Z,1013.26
2017-07-04T01:04:44.793Z,1013.29
2017-07-04T01:05:10.931Z,1013.26
2017-07-04T01:05:37.064Z,1013.26
2017-07-04T01:06:03.209Z,1013.25
2017-07-04T01:06:29.346Z,1013.24
2017-07-04T01:06:55.476Z,1013.27
2017-07-04T01:07:21.619Z,1013.26
2017-07-04T01:07:47.748Z,1013.26
2017-07-04T01:08:13.900Z,1013.27
2017-07-04T01:08:40.034Z,1013.26
2017-07-04T01:09:06.168Z,1013.26
2017-07-04T01:09:32.313Z,1013.29
2017-07-04T01:09:58.455Z,1013.26
2017-07-04T01:10:24.585Z,1013.3
2017-07-04T01:10:50.731Z,1013.27
2017-07-04T01:11:16.874Z,1013.25
2017-07-04T01:11:43.004Z,1013.29
2017-07-04T01:12:09.142Z,1013.29
2017-07-04T01:12:35.285Z,1013.27
2017-07-04T01:13:01.417Z,1013.29
2017-07-04T01:13:27.551Z,1013.32
2017-07-04T01:13:53.702Z,1013.33
2017-07-04T01:14:19.836Z,1013.27
2017-07-04T01:14:45.966Z,1013.32
2017-07-04T01:15:12.117Z,1013.32
2017-07-04T01:15:38.254Z,1013.29
2017-07-04T01:16:04.385Z,1013.3
2017-07-04T01:16:30.530Z,1013.29
2017-07-04T01:16:56.671Z,1013.3
2017-07-04T01:17:22.802Z,1013.3
2017-07-04T01:17:48.947Z,1013.32
2017-07-04T01:18:15.091Z,1013.31
2017-07-04T01:18:41.226Z,1013.3
2017-07-04T01:19:07.360Z,1013.25
2017-07-04T01:19:33.489Z,1013.28
2017-07-04T01:19:59.637Z,1013.27
2017-07-04T01:20:25.779Z,1013.28
2017-07-04T01:20:51.910Z,1013.27
2017-07-04T01:21:18.050Z,1013.27
2017-07-04T01:21:44.198Z,1013.24
2017-07-04T01:22:10.324Z,1013.25
2017-07-04T01:22:36.464Z,1013.23
2017-07-04T01:23:02.607Z,1013.27
2017-07-04T01:23:28.738Z,1013.24
2017-07-04T01:23:54.874Z,1013.28
2017-07-04T01:24:21.014Z,1013.25
2017-07-04T01:24:47.207Z,1013.3
2017-07-04T01:25:13.304Z,1013.25
2017-07-04T01:25:39.429Z,1013.25
2017-07-04T01:26:05.573Z,1013.26
2017-07-04T01:26:31.720Z,1013.26
2017-07-04T01:26:57.852Z,1013.25
2017-07-04T01:27:23.989Z,1013.27
2017-07-04T01:27:50.157Z,1013.23
2017-07-04T01:28:16.291Z,1013.25
2017-07-04T01:28:42.419Z,1013.27
2017-07-04T01:29:08.568Z,1013.22
2017-07-04T01:29:34.705Z,1013.25
2017-07-04T01:30:00.848Z,1013.24
2017-07-04T01:30:27.020Z,1013.27
2017-07-04T01:30:53.115Z,1013.24
2017-07-04T01:31:19.262Z,1013.19
2017-07-04T01:31:45.397Z,1013.21
2017-07-04T01:32:11.522Z,1013.23
2017-07-04T01:32:37.671Z,1013.18
2017-07-04T01:33:03.834Z,1013.19
2017-07-04T01:33:29.961Z,1013.19
2017-07-04T01:33:56.108Z,1013.18
2017-07-04T01:34:22.247Z,1013.17
2017-07-04T01:34:48.374Z,1013.19
2017-07-04T01:35:14.519Z,1013.2
2017-07-04T01:35:40.646Z,1013.23
2017-07-04T01:36:06.796Z,1013.19
2017-07-04T01:36:32.934Z,1013.18
2017-07-04T01:36:59.063Z,1013.21
2017-07-04T01:37:25.228Z,1013.2
2017-07-04T01:37:51.366Z,1013.21
2017-07-04T01:38:17.497Z,1013.24
2017-07-04T01:38:43.640Z,1013.21
2017-07-04T01:39:09.788Z,1013.2
2017-07-04T01:39:35.913Z,1013.2
2017-07-04T01:40:02.054Z,1013.21
2017-07-04T01:40:28.201Z,1013.24
2017-07-04T01:40:54.328Z,1013.22
2017-07-04T01:41:20.468Z,1013.23
2017-07-04T01:41:46.599Z,1013.25
2017-07-04T01:42:12.742Z,1013.25
2017-07-04T01:42:38.887Z,1013.24
2017-07-04T01:43:05.017Z,1013.25
2017-07-04T01:43:31.156Z,1013.26
2017-07-04T01:43:57.302Z,1013.26
2017-07-04T01:44:23.430Z,1013.26
2017-07-04T01:44:49.567Z,1013.26
2017-07-04T01:45:15.711Z,1013.3
2017-07-04T01:45:41.846Z,1013.31
2017-07-04T01:46:07.976Z,1013.29
2017-07-04T01:46:34.121Z,1013.26
2017-07-04T01:47:00.260Z,1013.28
2017-07-04T01:47:26.403Z,1013.26
2017-07-04T01:47:52.536Z,1013.27
2017-07-04T01:48:18.676Z,1013.29
2017-07-04T01:48:44.820Z,1013.26
2017-07-04T01:49:10.953Z,1013.27
2017-07-04T01:49:37.084Z,1013.23
2017-07-04T01:50:03.234Z,1013.22
2017-07-04T01:50:29.377Z,1013.25
2017-07-04T01:50:55.505Z,1013.22
2017-07-04T01:51:21.677Z,1013.24
2017-07-04T01:51:47.817Z,1013.23
2017-07-04T01:52:13.962Z,1013.23
2017-07-04T01:52:40.092Z,1013.24
2017-07-04T01:53:06.225Z,1013.26
2017-07-04T01:53:32.375Z,1013.24
2017-07-04T01:53:58.514Z,1013.24
2017-07-04T01:54:24.647Z,1013.25
2017-07-04T01:54:50.816Z,1013.27
2017-07-04T01:55:16.956Z,1013.28
2017-07-04T01:55:43.104Z,1013.27
2017-07-04T01:56:09.250Z,1013.27
2017-07-04T01:56:35.394Z,1013.3
2017-07-04T01:57:01.523Z,1013.29
2017-07-04T01:57:27.661Z,1013.3
2017-07-04T01:57:53.804Z,1013.33
2017-07-04T01:58:19.936Z,1013.35
2017-07-04T01:58:46.072Z,1013.31
2017-07-04T01:59:12.221Z,1013.36
2017-07-04T01:59:38.353Z,1013.37
2017-07-04T02:00:04.484Z,1013.34
2017-07-04T02:00:30.633Z,1013.37
2017-07-04T02:00:56.772Z,1013.31
2017-07-04T02:01:24.314Z,1013.35
2017-07-04T02:01:50.446Z,1013.31
2017-07-04T02:02:16.571Z,1013.32
2017-07-04T02:02:42.690Z,1013.28
2017-07-04T02:03:08.839Z,1013.29
2017-07-04T02:03:34.957Z,1013.27
2017-07-04T02:04:01.092Z,1013.32
2017-07-04T02:04:27.214Z,1013.32
2017-07-04T02:04:53.329Z,1013.32
2017-07-04T02:05:19.480Z,1013.35
2017-07-04T02:05:45.605Z,1013.35
2017-07-04T02:06:11.721Z,1013.36
2017-07-04T02:06:37.852Z,1013.34
2017-07-04T02:07:03.983Z,1013.34
2017-07-04T02:07:30.098Z,1013.35
2017-07-04T02:07:56.225Z,1013.37
2017-07-04T02:08:22.357Z,1013.38
2017-07-04T02:08:48.472Z,1013.37
2017-07-04T02:09:14.606Z,1013.38
2017-07-04T02:09:40.723Z,1013.36
2017-07-04T02:10:06.853Z,1013.37
2017-07-04T02:10:32.983Z,1013.38
2017-07-04T02:10:59.098Z,1013.37
2017-07-04T02:11:25.224Z,1013.36
2017-07-04T02:11:51.358Z,1013.37
2017-07-04T02:12:17.475Z,1013.37
2017-07-04T02:12:43.598Z,1013.35
2017-07-04T02:13:09.730Z,1013.34
2017-07-04T02:13:35.849Z,1013.3
2017-07-04T02:14:01.965Z,1013.29
2017-07-04T02:14:28.093Z,1013.32
2017-07-04T02:14:54.220Z,1013.26
2017-07-04T02:15:20.351Z,1013.32
2017-07-04T02:15:46.467Z,1013.29
2017-07-04T02:16:12.589Z,1013.27
2017-07-04T02:16:38.721Z,1013.29
2017-07-04T02:17:04.844Z,1013.31
2017-07-04T02:17:30.977Z,1013.33
2017-07-04T02:17:57.113Z,1013.34
2017-07-04T02:18:23.235Z,1013.31
2017-07-04T02:18:49.351Z,1013.36
2017-07-04T02:19:15.484Z,1013.32
2017-07-04T02:19:41.611Z,1013.33
2017-07-04T02:20:07.736Z,1013.34
2017-07-04T02:20:33.856Z,1013.37
2017-07-04T02:20:59.974Z,1013.36
2017-07-04T02:21:26.111Z,1013.34
2017-07-04T02:21:52.254Z,1013.33
2017-07-04T02:22:18.371Z,1013.36
2017-07-04T02:22:44.501Z,1013.3
2017-07-04T02:23:10.626Z,1013.33
2017-07-04T02:23:36.741Z,1013.33
2017-07-04T02:24:02.871Z,1013.32
2017-07-04T02:24:29.005Z,1013.3
2017-07-04T02:24:55.123Z,1013.26
2017-07-04T02:25:21.283Z,1013.27
2017-07-04T02:25:47.365Z,1013.24
2017-07-04T02:26:13.498Z,1013.25
2017-07-04T02:26:39.623Z,1013.28
2017-07-04T02:27:05.741Z,1013.24
2017-07-04T02:27:31.872Z,1013.23
2017-07-04T02:27:58.004Z,1013.2
2017-07-04T02:28:24.117Z,1013.23
2017-07-04T02:28:50.243Z,1013.21
2017-07-04T02:29:16.375Z,1013.22
2017-07-04T02:29:42.492Z,1013.22
2017-07-04T02:30:08.614Z,1013.22
2017-07-04T02:30:34.745Z,1013.18
2017-07-04T02:31:00.864Z,1013.21
2017-07-04T02:31:26.997Z,1013.2
2017-07-04T02:31:53.111Z,1013.21
2017-07-04T02:32:19.237Z,1013.25
2017-07-04T02:32:45.365Z,1013.25
2017-07-04T02:33:11.480Z,1013.25
2017-07-04T02:33:37.604Z,1013.26
2017-07-04T02:34:03.736Z,1013.23
2017-07-04T02:34:29.858Z,1013.28
2017-07-04T02:34:55.975Z,1013.27
2017-07-04T02:35:22.110Z,1013.27
2017-07-04T02:35:48.232Z,1013.26
2017-07-04T02:36:14.349Z,1013.29
2017-07-04T02:36:40.482Z,1013.28
2017-07-04T02:37:06.602Z,1013.27
2017-07-04T02:37:32.731Z,1013.29
2017-07-04T02:37:58.851Z,1013.26
2017-07-04T02:38:24.968Z,1013.27
2017-07-04T02:38:51.104Z,1013.25
2017-07-04T02:39:17.227Z,1013.28
2017-07-04T02:39:43.342Z,1013.27
2017-07-04T02:40:09.474Z,1013.25
2017-07-04T02:40:35.599Z,1013.27
2017-07-04T02:41:01.717Z,1013.26
2017-07-04T02:41:27.846Z,1013.24
2017-07-04T02:41:53.978Z,1013.23
2017-07-04T02:42:20.089Z,1013.23
2017-07-04T02:42:46.214Z,1013.22
2017-07-04T02:43:12.347Z,1013.22
2017-07-04T02:43:38.465Z,1013.27
2017-07-04T02:44:04.586Z,1013.25
2017-07-04T02:44:30.718Z,1013.25
2017-07-04T02:44:56.834Z,1013.28
2017-07-04T02:45:22.952Z,1013.28
2017-07-04T02:45:49.089Z,1013.28
2017-07-04T02:46:15.211Z,1013.31
2017-07-04T02:46:41.328Z,1013.31
2017-07-04T02:47:07.461Z,1013.34
2017-07-04T02:47:33.586Z,1013.35
2017-07-04T02:47:59.713Z,1013.3
2017-07-04T02:48:25.833Z,1013.33
2017-07-04T02:48:51.951Z,1013.37
2017-07-04T02:49:18.087Z,1013.32
2017-07-04T02:49:44.216Z,1013.34
2017-07-04T02:50:10.330Z,1013.33
2017-07-04T02:50:36.462Z,1013.36
2017-07-04T02:51:02.589Z,1013.35
2017-07-04T02:51:28.707Z,1013.35
2017-07-04T02:51:54.833Z,1013.34
2017-07-04T02:52:20.964Z,1013.35
2017-07-04T02:52:47.075Z,1013.39
2017-07-04T02:53:13.201Z,1013.38
2017-07-04T02:53:39.325Z,1013.34
2017-07-04T02:54:05.473Z,1013.4
2017-07-04T02:54:31.600Z,1013.38
2017-07-04T02:54:57.718Z,1013.4
2017-07-04T02:55:23.866Z,1013.39
2017-07-04T02:55:49.996Z,1013.44
2017-07-04T02:56:16.109Z,1013.41
2017-07-04T02:56:42.233Z,1013.4
2017-07-04T02:57:08.365Z,1013.43
2017-07-04T02:57:34.482Z,1013.42
2017-07-04T02:58:00.604Z,1013.43
2017-07-04T02:58:26.735Z,1013.4
2017-07-04T02:58:52.855Z,1013.42
2017-07-04T02:59:18.986Z,1013.4
2017-07-04T02:59:45.100Z,1013.45
2017-07-04T03:00:11.227Z,1013.42
2017-07-04T03:00:37.360Z,1013.46
2017-07-04T03:01:03.479Z,1013.48
2017-07-04T03:01:29.603Z,1013.43
2017-07-04T03:01:55.734Z,1013.4
2017-07-04T03:02:21.852Z,1013.43
2017-07-04T03:02:47.969Z,1013.42
2017-07-04T03:03:14.108Z,1013.42
2017-07-04T03:03:40.232Z,1013.46
2017-07-04T03:04:06.347Z,1013.41
2017-07-04T03:04:32.480Z,1013.44
2017-07-04T03:04:58.600Z,1013.43
2017-07-04T03:05:24.730Z,1013.42
2017-07-04T03:05:50.850Z,1013.4
2017-07-04T03:06:16.964Z,1013.42
2017-07-04T03:06:43.101Z,1013.4
2017-07-04T03:07:09.222Z,1013.38
2017-07-04T03:07:35.339Z,1013.37
2017-07-04T03:08:01.474Z,1013.38
2017-07-04T03:08:27.602Z,1013.39
2017-07-04T03:08:53.717Z,1013.39
2017-07-04T03:09:19.847Z,1013.38
2017-07-04T03:09:46.001Z,1013.38
2017-07-04T03:10:12.122Z,1013.39
2017-07-04T03:10:38.243Z,1013.39
2017-07-04T03:11:04.360Z,1013.39
2017-07-04T03:11:30.490Z,1013.41
2017-07-04T03:11:56.616Z,1013.41
2017-07-04T03:12:22.733Z,1013.37
2017-07-04T03:12:48.862Z,1013.38
2017-07-04T03:13:14.995Z,1013.36
2017-07-04T03:13:41.108Z,1013.4
2017-07-04T03:14:07.235Z,1013.37
2017-07-04T03:14:33.370Z,1013.39
2017-07-04T03:14:59.488Z,1013.39
2017-07-04T03:15:25.611Z,1013.36
2017-07-04T03:15:51.732Z,1013.39
2017-07-04T03:16:17.861Z,1013.39
2017-07-04T03:16:43.990Z,1013.41
2017-07-04T03:17:10.106Z,1013.42
2017-07-04T03:17:36.230Z,1013.43
2017-07-04T03:18:02.361Z,1013.38
2017-07-04T03:18:28.498Z,1013.45
2017-07-04T03:18:54.617Z,1013.44
2017-07-04T03:19:20.748Z,1013.47
2017-07-04T03:19:46.869Z,1013.46
2017-07-04T03:20:12.987Z,1013.48
2017-07-04T03:20:39.122Z,1013.47
2017-07-04T03:21:05.240Z,1013.44
2017-07-04T03:21:31.370Z,1013.45
2017-07-04T03:21:57.487Z,1013.47
2017-07-04T03:22:23.610Z,1013.47
2017-07-04T03:22:49.742Z,1013.43
2017-07-04T03:23:15.860Z,1013.44
2017-07-04T03:23:41.974Z,1013.43
2017-07-04T03:24:08.109Z,1013.46
2017-07-04T03:24:34.231Z,1013.44
2017-07-04T03:25:00.349Z,1013.43
2017-07-04T03:25:26.479Z,1013.45
2017-07-04T03:25:52.604Z,1013.42
2017-07-04T03:26:18.722Z,1013.44
2017-07-04T03:26:44.853Z,1013.46
2017-07-04T03:27:10.984Z,1013.44
2017-07-04T03:27:37.098Z,1013.45
2017-07-04T03:28:03.224Z,1013.44
2017-07-04T03:28:29.355Z,1013.45
2017-07-04T03:28:55.471Z,1013.44
2017-07-04T03:29:21.596Z,1013.43
2017-07-04T03:29:47.730Z,1013.45
2017-07-04T03:30:13.852Z,1013.48
2017-07-04T03:30:39.968Z,1013.47
2017-07-04T03:31:06.105Z,1013.46
2017-07-04T03:31:32.227Z,1013.49
2017-07-04T03:31:58.345Z,1013.5
2017-07-04T03:32:24.479Z,1013.46
2017-07-04T03:32:50.600Z,1013.5
2017-07-04T03:33:16.732Z,1013.49
2017-07-04T03:33:42.851Z,1013.52
2017-07-04T03:34:08.970Z,1013.51
2017-07-04T03:34:35.146Z,1013.51
2017-07-04T03:35:01.267Z,1013.51
2017-07-04T03:35:27.386Z,1013.56
2017-07-04T03:35:53.516Z,1013.55
2017-07-04T03:36:19.641Z,1013.56
2017-07-04T03:36:45.757Z,1013.55
2017-07-04T03:37:11.888Z,1013.51
2017-07-04T03:37:38.024Z,1013.56
2017-07-04T03:38:04.141Z,1013.58
2017-07-04T03:38:30.267Z,1013.57
2017-07-04T03:38:56.380Z,1013.58
2017-07-04T03:39:22.514Z,1013.53
2017-07-04T03:39:48.640Z,1013.58
2017-07-04T03:40:14.758Z,1013.56
2017-07-04T03:40:40.888Z,1013.57
2017-07-04T03:41:07.021Z,1013.58
2017-07-04T03:41:33.134Z,1013.62
2017-07-04T03:41:59.261Z,1013.63
2017-07-04T03:42:25.393Z,1013.58
2017-07-04T03:42:51.509Z,1013.56
2017-07-04T03:43:17.630Z,1013.6
2017-07-04T03:43:43.752Z,1013.62
2017-07-04T03:44:09.881Z,1013.63
2017-07-04T03:44:36.015Z,1013.65
2017-07-04T03:45:02.147Z,1013.65
2017-07-04T03:45:28.274Z,1013.63
2017-07-04T03:45:54.407Z,1013.63
2017-07-04T03:46:20.525Z,1013.62
2017-07-04T03:46:46.647Z,1013.65
2017-07-04T03:47:12.777Z,1013.63
2017-07-04T03:47:38.916Z,1013.63
2017-07-04T03:48:05.032Z,1013.67
2017-07-04T03:48:31.169Z,1013.63
2017-07-04T03:48:57.292Z,1013.65
2017-07-04T03:49:23.420Z,1013.62
2017-07-04T03:49:49.537Z,1013.65
2017-07-04T03:50:15.660Z,1013.66
2017-07-04T03:50:41.790Z,1013.68
2017-07-04T03:51:07.908Z,1013.67
2017-07-04T03:51:34.025Z,1013.67
2017-07-04T03:52:00.162Z,1013.68
2017-07-04T03:52:26.358Z,1013.68
2017-07-04T03:52:52.482Z,1013.69
2017-07-04T03:53:18.614Z,1013.7
2017-07-04T03:53:44.739Z,1013.7
2017-07-04T03:54:10.856Z,1013.7
2017-07-04T03:54:36.985Z,1013.73
2017-07-04T03:55:03.100Z,1013.74
2017-07-04T03:55:29.238Z,1013.71
2017-07-04T03:55:55.360Z,1013.74
2017-07-04T03:56:21.477Z,1013.72
2017-07-04T03:56:47.610Z,1013.73
2017-07-04T03:57:13.737Z,1013.75
2017-07-04T03:57:39.853Z,1013.77
2017-07-04T03:58:05.981Z,1013.75
2017-07-04T03:58:32.113Z,1013.75
2017-07-04T03:58:58.226Z,1013.78
2017-07-04T03:59:24.352Z,1013.76
2017-07-04T03:59:50.484Z,1013.74
2017-07-04T04:00:16.600Z,1013.83
2017-07-04T04:00:42.727Z,1013.79
2017-07-04T04:01:08.845Z,1013.8
2017-07-04T04:01:34.976Z,1013.81
2017-07-04T04:02:01.110Z,1013.76
2017-07-04T04:02:27.223Z,1013.77
2017-07-04T04:02:53.348Z,1013.82
2017-07-04T04:03:19.480Z,1013.81
2017-07-04T04:03:45.649Z,1013.81
2017-07-04T04:04:11.721Z,1013.79
2017-07-04T04:04:37.854Z,1013.82
2017-07-04T04:05:03.973Z,1013.81
2017-07-04T04:05:30.087Z,1013.79
2017-07-04T04:05:56.217Z,1013.82
2017-07-04T04:06:22.344Z,1013.84
2017-07-04T04:06:48.476Z,1013.85
2017-07-04T04:07:14.593Z,1013.81
2017-07-04T04:07:40.715Z,1013.82
2017-07-04T04:08:06.848Z,1013.81
2017-07-04T04:08:32.982Z,1013.83
2017-07-04T04:08:59.098Z,1013.8
2017-07-04T04:09:25.236Z,1013.8
2017-07-04T04:09:51.359Z,1013.79
2017-07-04T04:10:17.480Z,1013.78
2017-07-04T04:10:43.612Z,1013.79
2017-07-04T04:11:09.738Z,1013.75
2017-07-04T04:11:35.853Z,1013.78
2017-07-04T04:12:01.983Z,1013.77
2017-07-04T04:12:28.116Z,1013.78
2017-07-04T04:12:54.231Z,1013.72
2017-07-04T04:13:20.355Z,1013.71
2017-07-04T04:13:46.687Z,1013.72
2017-07-04T04:14:12.805Z,1013.68
2017-07-04T04:14:38.944Z,1013.71
2017-07-04T04:15:05.078Z,1013.7
2017-07-04T04:15:31.197Z,1013.69
2017-07-04T04:15:57.315Z,1013.69
2017-07-04T04:16:23.449Z,1013.69
2017-07-04T04:16:49.569Z,1013.7
2017-07-04T04:17:15.697Z,1013.7
2017-07-04T04:17:41.815Z,1013.68
2017-07-04T04:18:07.938Z,1013.66
2017-07-04T04:18:34.071Z,1013.67
2017-07-04T04:19:00.190Z,1013.67
2017-07-04T04:19:26.308Z,1013.65
2017-07-04T04:19:52.444Z,1013.67
2017-07-04T04:20:18.567Z,1013.65
2017-07-04T04:20:44.685Z,1013.65
2017-07-04T04:21:10.815Z,1013.66
2017-07-04T04:21:36.939Z,1013.66
2017-07-04T04:22:03.057Z,1013.67
2017-07-04T04:22:29.187Z,1013.69
2017-07-04T04:22:55.303Z,1013.65
2017-07-04T04:23:21.440Z,1013.66
2017-07-04T04:23:47.562Z,1013.66
2017-07-04T04:24:13.679Z,1013.69
2017-07-04T04:24:39.811Z,1013.72
2017-07-04T04:25:05.938Z,1013.72
2017-07-04T04:25:32.057Z,1013.73
2017-07-04T04:25:58.187Z,1013.71
2017-07-04T04:26:24.320Z,1013.73
2017-07-04T04:26:50.436Z,1013.76
2017-07-04T04:27:16.558Z,1013.81
2017-07-04T04:27:42.689Z,1013.79
2017-07-04T04:28:08.807Z,1013.85
2017-07-04T04:28:34.935Z,1013.83
2017-07-04T04:29:01.050Z,1013.86
2017-07-04T04:29:27.181Z,1013.89
2017-07-04T04:29:53.313Z,1013.89
2017-07-04T04:30:19.426Z,1013.91
2017-07-04T04:30:45.552Z,1013.93
2017-07-04T04:31:11.682Z,1013.91
2017-07-04T04:31:37.798Z,1013.93
2017-07-04T04:32:03.921Z,1013.95
2017-07-04T04:32:30.054Z,1013.94
2017-07-04T04:32:56.176Z,1013.96
2017-07-04T04:33:22.295Z,1013.98
2017-07-04T04:33:48.427Z,1013.97
2017-07-04T04:34:14.549Z,1014.01
2017-07-04T04:34:40.666Z,1014
2017-07-04T04:35:06.802Z,1014.01
2017-07-04T04:35:32.925Z,1013.99
2017-07-04T04:35:59.041Z,1014.02
2017-07-04T04:36:25.169Z,1014.03
2017-07-04T04:36:51.302Z,1014.06
2017-07-04T04:37:17.417Z,1013.98
2017-07-04T04:37:43.544Z,1014
2017-07-04T04:38:09.677Z,1014.01
2017-07-04T04:38:35.793Z,1014.05
2017-07-04T04:39:01.916Z,1014.03
2017-07-04T04:39:28.038Z,1014.03
2017-07-04T04:39:54.171Z,1014.06
2017-07-04T04:40:20.306Z,1014.08
2017-07-04T04:40:46.423Z,1014.07
2017-07-04T04:41:12.545Z,1014.04
2017-07-04T04:41:38.679Z,1014.06
2017-07-04T04:42:04.798Z,1014.03
2017-07-04T04:42:30.922Z,1014.08
2017-07-04T04:42:57.057Z,1014.04
2017-07-04T04:43:23.181Z,1014.07
2017-07-04T04:43:49.296Z,1014.08
2017-07-04T04:44:15.433Z,1014.1
2017-07-04T04:44:41.556Z,1014.05
2017-07-04T04:45:07.684Z,1014.09
2017-07-04T04:45:33.802Z,1014.1
2017-07-04T04:45:59.924Z,1014.09
2017-07-04T04:46:26.053Z,1014.09
2017-07-04T04:46:52.173Z,1014.12
2017-07-04T04:47:18.291Z,1014.1
2017-07-04T04:47:44.427Z,1014.09
2017-07-04T04:48:10.552Z,1014.1
2017-07-04T04:48:36.667Z,1014.07
2017-07-04T04:49:02.801Z,1014.07
2017-07-04T04:49:28.927Z,1014.05
2017-07-04T04:49:55.043Z,1014.04
2017-07-04T04:50:21.174Z,1014.07
2017-07-04T04:50:47.290Z,1014.06
2017-07-04T04:51:13.424Z,1014.07
2017-07-04T04:51:39.548Z,1014.08
2017-07-04T04:52:05.665Z,1014.09
2017-07-04T04:52:31.797Z,1014.1
2017-07-04T04:52:57.925Z,1014.11
2017-07-04T04:53:24.043Z,1014.11
2017-07-04T04:53:50.193Z,1014.11
2017-07-04T04:54:16.327Z,1014.09
2017-07-04T04:54:42.440Z,1014.08
2017-07-04T04:55:08.566Z,1014.05
2017-07-04T04:55:34.700Z,1014.05
2017-07-04T04:56:00.835Z,1014.07
2017-07-04T04:56:26.958Z,1014.1
2017-07-04T04:56:53.091Z,1014.1
2017-07-04T04:57:19.211Z,1014.04
2017-07-04T04:57:45.329Z,1014.05
2017-07-04T04:58:11.466Z,1014.04
2017-07-04T04:58:37.590Z,1014.05
2017-07-04T04:59:03.704Z,1014.05
2017-07-04T04:59:29.835Z,1014.05
2017-07-04T04:59:55.961Z,1014
2017-07-04T05:00:22.078Z,1014.04
2017-07-04T05:00:48.208Z,1014.04
2017-07-04T05:01:14.340Z,1014.03
2017-07-04T05:01:40.460Z,1014.01
2017-07-04T05:02:06.584Z,1014.04
2017-07-04T05:02:32.703Z,1014.03
2017-07-04T05:02:58.838Z,1014.04
2017-07-04T05:03:24.965Z,1014.04
2017-07-04T05:03:51.081Z,1014.02
2017-07-04T05:04:17.210Z,1014.05
2017-07-04T05:04:43.343Z,1014.05
2017-07-04T05:05:09.458Z,1014.05
2017-07-04T05:05:35.584Z,1014.04
2017-07-04T05:06:01.737Z,1014.08
2017-07-04T05:06:27.855Z,1014.06
2017-07-04T05:06:53.979Z,1014.06
2017-07-04T05:07:20.102Z,1014.08
2017-07-04T05:07:46.230Z,1014.07
2017-07-04T05:08:12.364Z,1014.1
2017-07-04T05:08:38.479Z,1014.11
2017-07-04T05:09:04.607Z,1014.1
2017-07-04T05:09:30.741Z,1014.11
2017-07-04T05:09:56.859Z,1014.09
2017-07-04T05:10:22.982Z,1014.12
2017-07-04T05:10:49.116Z,1014.18
2017-07-04T05:11:15.237Z,1014.14
2017-07-04T05:11:41.355Z,1014.11
2017-07-04T05:12:07.491Z,1014.16
2017-07-04T05:12:33.614Z,1014.14
2017-07-04T05:12:59.744Z,1014.1
2017-07-04T05:13:25.860Z,1014.14
2017-07-04T05:13:51.986Z,1014.08
2017-07-04T05:14:18.119Z,1014.09
2017-07-04T05:14:44.243Z,1014.14
2017-07-04T05:15:10.360Z,1014.13
2017-07-04T05:15:36.496Z,1014.12
2017-07-04T05:16:02.619Z,1014.13
2017-07-04T05:16:28.737Z,1014.15
2017-07-04T05:16:54.872Z,1014.18
2017-07-04T05:17:21.000Z,1014.17
2017-07-04T05:17:47.117Z,1014.17